Terminal Aerodrome Forecast
Issued by NWS

Home | Current Version | Previous Version | Text Only | Print | Product List | Glossary On
Versions: 1 2 3 4 5 6 7 8 9 10 11 12 13 14 15 16 17 18 19 20 21 22 23 24 25 26 27 28
000
FTUS45 KPSR 071720
TAFSDL
TAF
KSDL 071720Z 0718/0818 00000KT P6SM SCT035 BKN250
     FM072100 24004KT P6SM FEW040 BKN150
     FM080100 VRB03KT P6SM SCT150 SCT250=

USA.gov is the U.S. government's official web portal to all federal, state and local government web resources and services.